Terminal Aerodrome Forecast
Issued by NWS

Home | Current Version | Previous Version | Text Only | Print | Product List | Glossary On
Versions: 1 2 3 4 5 6 7 8 9 10 11 12 13 14 15 16 17 18 19 20 21 22
000
FTUS41 KPBZ 211700
TAFFKL
TAF
KFKL 211739Z 2118/2218 23008KT P6SM VCTS BKN050CB
     FM220000 VRB03KT P6SM SCT050
     FM220700 VRB03KT 4SM BR SCT040
     FM221000 VRB03KT 1SM BR SKC
     FM221400 22003KT 6SM BR BKN040
      AMD LTD TO CLD VIS AND WIND=

USA.gov is the U.S. government's official web portal to all federal, state and local government web resources and services.